Time;durP1;ratioP1;P1;durP2;ratioP2;P2;SDS_P1;SDS_P2;PMS_P1;PMS_P2;Temp;Humidity;BMP_temperature;BMP_pressure;BME280_temperature;BME280_humidity;BME280_pressure;Samples;Min_cycle;Max_cycle;Signal;HPM_P1;HPM_P2
2021/06/16 00:00:24;;;;;;;;;;;23.40;63.10;;;;;;5147451;27;20403;-71
2021/06/16 00:02:51;;;;;;;;;;;23.50;63.30;;;;;;5127328;27;19919;-71
2021/06/16 00:05:23;;;;;;;;;;;23.40;63.90;;;;;;5146532;27;19965;-73
2021/06/16 00:07:50;;;;;;;;;;;23.40;64.60;;;;;;5150391;27;19922;-73
2021/06/16 00:10:18;;;;;;;;;;;23.30;65.20;;;;;;5150371;27;19950;-72
2021/06/16 00:12:45;;;;;;;;;;;23.30;65.50;;;;;;5127581;27;20011;-72
2021/06/16 00:15:16;;;;;;;;;;;23.20;65.90;;;;;;5130532;27;19920;-72
2021/06/16 00:17:42;;;;;;;;;;;23.20;66.70;;;;;;5144721;27;19958;-72
2021/06/16 00:20:10;;;;;;;;;;;23.10;66.90;;;;;;5129678;27;20005;-73
2021/06/16 00:22:37;;;;;;;;;;;23.10;67.50;;;;;;5149866;27;20018;-72
2021/06/16 00:25:05;;;;;;;;;;;23.10;67.80;;;;;;5147484;27;19926;-72
2021/06/16 00:27:32;;;;;;;;;;;23.10;68.00;;;;;;5146339;27;20021;-72
2021/06/16 00:29:58;;;;;;;;;;;23.10;68.60;;;;;;5131811;27;20455;-72
2021/06/16 00:32:25;;;;;;;;;;;23.00;69.00;;;;;;5147084;27;20358;-72
2021/06/16 00:34:52;;;;;;;;;;;23.00;69.40;;;;;;5148221;27;20606;-73
2021/06/16 00:37:19;;;;;;;;;;;22.90;70.40;;;;;;5147426;27;20350;-73
2021/06/16 00:39:48;;;;;;;;;;;22.90;70.50;;;;;;5146079;27;19957;-73
2021/06/16 00:42:15;;;;;;;;;;;23.00;70.70;;;;;;5142081;27;19954;-74
2021/06/16 00:44:42;;;;;;;;;;;23.10;70.30;;;;;;5147971;27;19993;-74
2021/06/16 00:47:09;;;;;;;;;;;23.10;70.30;;;;;;5149413;27;19919;-74
2021/06/16 00:49:35;;;;;;;;;;;23.00;70.90;;;;;;5149817;27;20430;-74
2021/06/16 00:52:02;;;;;;;;;;;22.90;71.30;;;;;;5144838;27;19975;-74
2021/06/16 00:54:33;;;;;;;;;;;23.00;71.20;;;;;;5150559;27;19918;-74
2021/06/16 00:57:01;;;;;;;;;;;22.90;72.00;;;;;;5150012;27;20362;-74
2021/06/16 00:59:41;;;;;;;;;;;22.90;72.30;;;;;;5128852;27;19959;-74
2021/06/16 01:02:08;;;;;;;;;;;22.90;72.40;;;;;;5144653;27;19966;-74
2021/06/16 01:04:36;;;;;;;;;;;22.80;72.90;;;;;;5130952;27;20005;-74
2021/06/16 01:07:13;;;;;;;;;;;22.70;73.00;;;;;;5146742;27;19942;-74
2021/06/16 01:09:44;;;;;;;;;;;22.80;73.10;;;;;;5133297;27;20394;-74
2021/06/16 01:12:19;;;;;;;;;;;22.80;73.30;;;;;;5150127;27;19923;-74
2021/06/16 01:15:03;;;;;;;;;;;22.70;73.70;;;;;;5150091;27;19929;-74
2021/06/16 01:17:56;;;;;;;;;;;22.80;73.80;;;;;;5151420;27;20009;-74
2021/06/16 01:20:29;;;;;;;;;;;22.60;74.70;;;;;;5150132;27;19919;-73
2021/06/16 01:22:55;;;;;;;;;;;22.60;74.90;;;;;;5146695;27;19973;-73
2021/06/16 01:25:29;;;;;;;;;;;22.60;75.30;;;;;;5151882;27;19966;-73
2021/06/16 01:27:56;;;;;;;;;;;22.70;75.30;;;;;;5130619;27;19918;-75
2021/06/16 01:30:24;;;;;;;;;;;22.60;75.80;;;;;;5151200;27;19971;-75
2021/06/16 01:32:51;;;;;;;;;;;22.50;76.00;;;;;;5122783;27;19923;-72
2021/06/16 01:35:18;;;;;;;;;;;22.40;77.20;;;;;;5151900;27;19926;-73
2021/06/16 01:37:45;;;;;;;;;;;22.50;77.20;;;;;;5145638;27;20389;-74
2021/06/16 01:40:12;;;;;;;;;;;22.60;76.90;;;;;;5124448;27;19919;-73
2021/06/16 01:42:40;;;;;;;;;;;22.60;77.10;;;;;;5129939;27;19990;-73
2021/06/16 01:45:07;;;;;;;;;;;22.50;77.20;;;;;;5152262;27;19918;-74
2021/06/16 01:47:34;;;;;;;;;;;22.50;77.20;;;;;;5129011;27;19963;-74
2021/06/16 01:50:03;;;;;;;;;;;22.30;78.00;;;;;;5131843;27;19965;-74
2021/06/16 01:52:31;;;;;;;;;;;22.40;77.70;;;;;;5142553;27;20034;-74
2021/06/16 01:54:58;;;;;;;;;;;22.40;77.50;;;;;;5153831;27;19983;-74
2021/06/16 01:57:25;;;;;;;;;;;22.40;78.10;;;;;;5152376;27;20459;-74
2021/06/16 01:59:56;;;;;;;;;;;22.30;78.60;;;;;;5151007;27;19919;-74
2021/06/16 02:02:23;;;;;;;;;;;22.30;79.10;;;;;;5133212;27;20007;-74
2021/06/16 02:04:49;;;;;;;;;;;22.30;79.30;;;;;;5138389;27;19973;-74
2021/06/16 02:07:18;;;;;;;;;;;22.20;80.20;;;;;;5149803;27;19960;-74
2021/06/16 02:09:46;;;;;;;;;;;22.20;80.80;;;;;;5149205;27;19927;-74
2021/06/16 02:12:14;;;;;;;;;;;22.10;81.00;;;;;;5151705;27;19980;-73
2021/06/16 02:14:42;;;;;;;;;;;22.20;81.20;;;;;;5148071;27;19947;-74
2021/06/16 02:17:11;;;;;;;;;;;22.20;81.10;;;;;;5147456;27;20418;-74
2021/06/16 02:19:40;;;;;;;;;;;22.20;81.50;;;;;;5148421;27;19919;-73
2021/06/16 02:22:07;;;;;;;;;;;22.20;81.90;;;;;;5151987;27;19980;-74
2021/06/16 02:24:35;;;;;;;;;;;22.20;82.00;;;;;;5150538;27;19930;-74
2021/06/16 02:27:02;;;;;;;;;;;22.20;82.10;;;;;;5133564;27;19923;-74
2021/06/16 02:29:29;;;;;;;;;;;22.20;81.90;;;;;;5130025;27;19978;-74
2021/06/16 02:31:56;;;;;;;;;;;22.10;82.60;;;;;;5151028;27;20045;-74
2021/06/16 02:34:29;;;;;;;;;;;22.00;83.20;;;;;;5151723;27;19927;-72
2021/06/16 02:37:12;;;;;;;;;;;22.00;83.80;;;;;;5130274;27;19963;-72
2021/06/16 02:39:53;;;;;;;;;;;22.10;83.50;;;;;;5148733;27;19966;-71
2021/06/16 02:42:21;;;;;;;;;;;22.00;84.10;;;;;;5132216;27;19919;-72
2021/06/16 02:44:48;;;;;;;;;;;21.90;84.40;;;;;;5131080;27;19927;-73
2021/06/16 02:47:16;;;;;;;;;;;21.80;85.00;;;;;;5132217;27;20381;-73
2021/06/16 02:50:03;;;;;;;;;;;21.80;85.90;;;;;;5151836;27;20629;-73
2021/06/16 02:52:33;;;;;;;;;;;21.80;85.90;;;;;;5128026;27;20332;-73
2021/06/16 02:55:02;;;;;;;;;;;21.80;86.00;;;;;;5151350;27;20319;-73
2021/06/16 02:57:30;;;;;;;;;;;21.80;85.90;;;;;;5127489;27;19919;-73
2021/06/16 02:59:57;;;;;;;;;;;21.60;86.70;;;;;;5128690;27;20343;-73
2021/06/16 03:02:25;;;;;;;;;;;21.70;87.30;;;;;;5152013;27;20196;-71
2021/06/16 03:04:52;;;;;;;;;;;21.50;87.70;;;;;;5149247;27;19923;-72
2021/06/16 03:07:19;;;;;;;;;;;21.60;87.90;;;;;;5149619;27;19964;-73
2021/06/16 03:09:47;;;;;;;;;;;21.60;88.10;;;;;;5152333;27;19966;-71
2021/06/16 03:12:14;;;;;;;;;;;21.60;88.40;;;;;;5148350;27;20006;-72
2021/06/16 03:14:41;;;;;;;;;;;21.50;89.00;;;;;;5132312;27;20409;-72
2021/06/16 03:17:10;;;;;;;;;;;21.50;89.40;;;;;;5151335;27;19965;-72
2021/06/16 03:19:37;;;;;;;;;;;21.70;88.70;;;;;;5146296;27;19919;-72
2021/06/16 03:22:04;;;;;;;;;;;21.60;88.40;;;;;;5139340;27;19992;-73
2021/06/16 03:24:31;;;;;;;;;;;21.50;89.00;;;;;;5150921;27;20092;-72
2021/06/16 03:26:58;;;;;;;;;;;21.60;89.00;;;;;;5148014;27;19972;-73
2021/06/16 03:29:28;;;;;;;;;;;21.60;88.90;;;;;;5149783;27;19926;-72
2021/06/16 03:31:55;;;;;;;;;;;21.60;89.30;;;;;;5148175;27;19958;-73
2021/06/16 03:34:22;;;;;;;;;;;21.50;89.50;;;;;;5131494;27;20318;-72
2021/06/16 03:36:50;;;;;;;;;;;21.50;90.00;;;;;;5147853;27;19923;-72
2021/06/16 03:39:17;;;;;;;;;;;21.50;90.00;;;;;;5148384;27;19971;-72
2021/06/16 03:41:44;;;;;;;;;;;21.50;90.20;;;;;;5149217;27;19966;-72
2021/06/16 03:44:11;;;;;;;;;;;21.40;90.30;;;;;;5134751;27;20334;-72
2021/06/16 03:46:39;;;;;;;;;;;21.40;90.50;;;;;;5148200;27;20377;-72
2021/06/16 03:49:08;;;;;;;;;;;21.40;90.80;;;;;;5149487;27;19954;-72
2021/06/16 03:51:36;;;;;;;;;;;21.30;90.80;;;;;;5148631;27;19968;-72
2021/06/16 03:54:11;;;;;;;;;;;21.30;91.10;;;;;;5148916;27;20334;-72
2021/06/16 03:56:39;;;;;;;;;;;21.50;90.80;;;;;;5128699;27;20014;-73
2021/06/16 03:59:07;;;;;;;;;;;21.50;90.70;;;;;;5149069;27;19927;-72
2021/06/16 04:01:34;;;;;;;;;;;21.50;90.80;;;;;;5148498;27;19957;-72
2021/06/16 04:04:02;;;;;;;;;;;21.50;90.60;;;;;;5149816;27;19919;-72
2021/06/16 04:06:29;;;;;;;;;;;21.30;91.00;;;;;;5129539;27;20014;-72
2021/06/16 04:08:56;;;;;;;;;;;21.40;90.90;;;;;;5148781;27;19977;-72
2021/06/16 04:11:23;;;;;;;;;;;21.40;90.90;;;;;;5126747;27;19919;-72
2021/06/16 04:13:49;;;;;;;;;;;21.40;90.90;;;;;;5129466;27;19923;-72
2021/06/16 04:16:16;;;;;;;;;;;21.40;91.00;;;;;;5159001;27;19918;-72
2021/06/16 04:18:43;;;;;;;;;;;21.40;91.00;;;;;;5149961;27;19919;-72
2021/06/16 04:21:10;;;;;;;;;;;21.40;91.20;;;;;;5147177;27;19961;-72
2021/06/16 04:23:37;;;;;;;;;;;21.30;91.50;;;;;;5149216;27;20319;-72
2021/06/16 04:26:03;;;;;;;;;;;21.30;92.00;;;;;;5148277;27;20029;-72
2021/06/16 04:28:30;;;;;;;;;;;21.30;91.80;;;;;;5142500;27;19919;-73
2021/06/16 04:30:57;;;;;;;;;;;21.40;91.70;;;;;;5148582;27;20005;-72
2021/06/16 04:33:23;;;;;;;;;;;21.40;91.50;;;;;;5129902;27;19946;-73
2021/06/16 04:35:50;;;;;;;;;;;21.50;91.20;;;;;;5145413;27;19973;-74
2021/06/16 04:38:17;;;;;;;;;;;21.70;90.90;;;;;;5144776;27;19958;-73
2021/06/16 04:40:43;;;;;;;;;;;21.50;91.20;;;;;;5147171;27;19971;-74
2021/06/16 04:43:10;;;;;;;;;;;21.70;90.90;;;;;;5133991;27;19975;-73
2021/06/16 04:45:39;;;;;;;;;;;21.70;90.80;;;;;;5153388;27;20006;-73
2021/06/16 04:48:06;;;;;;;;;;;21.60;91.20;;;;;;5151379;27;19929;-74
2021/06/16 04:50:33;;;;;;;;;;;21.60;91.30;;;;;;5151420;27;19919;-73
2021/06/16 04:53:00;;;;;;;;;;;21.70;91.00;;;;;;5130839;27;19967;-74
2021/06/16 04:55:27;;;;;;;;;;;21.80;90.60;;;;;;5134597;27;19926;-74
2021/06/16 04:57:53;;;;;;;;;;;21.70;90.80;;;;;;5149030;27;19923;-74
2021/06/16 05:00:22;;;;;;;;;;;22.10;90.10;;;;;;5151220;27;19966;-73
2021/06/16 05:03:01;;;;;;;;;;;22.40;87.90;;;;;;5129885;27;19974;-74
2021/06/16 05:05:28;;;;;;;;;;;22.80;85.40;;;;;;5128211;27;19962;-77
2021/06/16 05:07:55;;;;;;;;;;;22.90;83.80;;;;;;5148374;27;20021;-73
2021/06/16 05:10:22;;;;;;;;;;;23.30;82.00;;;;;;5152805;27;20346;-73
2021/06/16 05:12:49;;;;;;;;;;;23.70;79.30;;;;;;5148627;27;19976;-73
2021/06/16 05:15:16;;;;;;;;;;;24.10;77.00;;;;;;5133135;27;20370;-73
2021/06/16 05:17:42;;;;;;;;;;;24.40;75.30;;;;;;5152847;27;19926;-72
2021/06/16 05:20:10;;;;;;;;;;;24.40;73.90;;;;;;5146726;27;19919;-73
2021/06/16 05:22:38;;;;;;;;;;;24.80;71.80;;;;;;5147680;27;19922;-79
2021/06/16 05:25:07;;;;;;;;;;;24.80;71.90;;;;;;5147941;27;19951;-71
2021/06/16 05:27:34;;;;;;;;;;;25.30;70.00;;;;;;5149406;27;20108;-69
2021/06/16 05:30:02;;;;;;;;;;;26.00;67.40;;;;;;5148258;27;20014;-69
2021/06/16 05:32:29;;;;;;;;;;;26.30;65.40;;;;;;5151702;27;19961;-69
2021/06/16 05:34:56;;;;;;;;;;;26.70;64.10;;;;;;5128902;27;19966;-70
2021/06/16 05:37:23;;;;;;;;;;;27.00;62.60;;;;;;5147497;27;20389;-68
2021/06/16 05:39:50;;;;;;;;;;;27.20;61.50;;;;;;5149188;27;20005;-69
2021/06/16 05:42:17;;;;;;;;;;;26.50;62.80;;;;;;5148013;27;19954;-68
2021/06/16 05:44:44;;;;;;;;;;;26.30;63.60;;;;;;5150883;27;20017;-68
2021/06/16 05:47:11;;;;;;;;;;;26.30;63.50;;;;;;5142316;27;20330;-70
2021/06/16 05:49:38;;;;;;;;;;;25.00;66.30;;;;;;5146931;27;19918;-69
2021/06/16 05:52:04;;;;;;;;;;;24.50;68.70;;;;;;5150382;27;19972;-68
2021/06/16 05:54:31;;;;;;;;;;;24.00;69.90;;;;;;5149116;27;19998;-68
2021/06/16 05:56:58;;;;;;;;;;;23.80;71.50;;;;;;5131010;27;20010;-68
2021/06/16 05:59:25;;;;;;;;;;;23.70;72.80;;;;;;5152329;27;20002;-70
2021/06/16 06:01:52;;;;;;;;;;;23.50;73.90;;;;;;5148630;27;19919;-71
2021/06/16 06:04:18;;;;;;;;;;;23.60;73.80;;;;;;5148576;27;19929;-72
2021/06/16 06:06:45;;;;;;;;;;;23.50;74.70;;;;;;5153192;27;19964;-68
2021/06/16 06:09:12;;;;;;;;;;;23.30;76.20;;;;;;5143665;27;20010;-70
2021/06/16 06:11:39;;;;;;;;;;;23.30;76.20;;;;;;5149904;27;20402;-68
2021/06/16 06:14:06;;;;;;;;;;;23.20;75.00;;;;;;5152843;27;19922;-67
2021/06/16 06:16:33;;;;;;;;;;;23.40;75.40;;;;;;5131545;27;19919;-67
2021/06/16 06:19:00;;;;;;;;;;;23.30;74.90;;;;;;5149084;27;19927;-67
2021/06/16 06:21:30;;;;;;;;;;;23.30;75.50;;;;;;5124982;27;19962;-68
2021/06/16 06:23:58;;;;;;;;;;;23.60;74.90;;;;;;5148297;27;19922;-71
2021/06/16 06:26:28;;;;;;;;;;;23.60;75.20;;;;;;5150525;27;19919;-70
2021/06/16 06:28:55;;;;;;;;;;;23.50;75.60;;;;;;5151892;27;19968;-70
2021/06/16 06:31:22;;;;;;;;;;;23.50;75.30;;;;;;5149537;27;19985;-70
2021/06/16 06:33:49;;;;;;;;;;;24.00;73.80;;;;;;5150060;27;19927;-70
2021/06/16 06:36:15;;;;;;;;;;;24.00;72.40;;;;;;5151168;27;19959;-71
2021/06/16 06:38:42;;;;;;;;;;;24.20;71.90;;;;;;5143823;27;19944;-70
2021/06/16 06:41:10;;;;;;;;;;;24.10;71.30;;;;;;5133907;27;19927;-70
2021/06/16 06:43:37;;;;;;;;;;;24.20;70.70;;;;;;5132472;27;19962;-71
2021/06/16 06:46:04;;;;;;;;;;;24.20;70.30;;;;;;5149484;27;20010;-70
2021/06/16 06:48:31;;;;;;;;;;;24.40;70.60;;;;;;5151920;27;19969;-71
2021/06/16 06:50:58;;;;;;;;;;;25.40;68.40;;;;;;5147629;27;20010;-71
2021/06/16 06:53:27;;;;;;;;;;;26.40;64.60;;;;;;5140574;27;20588;-71
2021/06/16 06:55:55;;;;;;;;;;;25.80;65.20;;;;;;5151868;27;19923;-71
2021/06/16 06:58:22;;;;;;;;;;;25.00;67.10;;;;;;5147819;27;20351;-71
2021/06/16 07:00:49;;;;;;;;;;;24.80;68.30;;;;;;5149242;27;19958;-71
2021/06/16 07:03:16;;;;;;;;;;;24.70;68.70;;;;;;5152986;27;19971;-71
2021/06/16 07:05:42;;;;;;;;;;;24.80;68.80;;;;;;5142140;27;20004;-69
2021/06/16 07:08:09;;;;;;;;;;;24.60;68.70;;;;;;5149405;27;19962;-69
2021/06/16 07:10:36;;;;;;;;;;;24.60;69.00;;;;;;5151761;27;19958;-68
2021/06/16 07:13:03;;;;;;;;;;;24.60;68.10;;;;;;5148468;27;20327;-67
2021/06/16 07:15:31;;;;;;;;;;;24.60;67.90;;;;;;5149172;27;19923;-67
2021/06/16 07:17:58;;;;;;;;;;;24.70;67.50;;;;;;5152299;27;20293;-67
2021/06/16 07:20:25;;;;;;;;;;;25.70;65.80;;;;;;5146567;27;19942;-68
2021/06/16 07:22:51;;;;;;;;;;;26.30;62.30;;;;;;5138178;27;20338;-68
2021/06/16 07:25:19;;;;;;;;;;;26.60;61.10;;;;;;5146796;27;19923;-68
2021/06/16 07:27:46;;;;;;;;;;;27.10;58.80;;;;;;5146991;27;20376;-68
2021/06/16 07:30:13;;;;;;;;;;;26.40;60.10;;;;;;5149556;27;20011;-68
2021/06/16 07:32:40;;;;;;;;;;;25.50;62.80;;;;;;5148989;27;19923;-68
2021/06/16 07:35:08;;;;;;;;;;;25.20;63.20;;;;;;5147517;27;19962;-68
2021/06/16 07:37:35;;;;;;;;;;;25.30;62.60;;;;;;5150761;27;19973;-71
2021/06/16 07:40:02;;;;;;;;;;;25.40;61.90;;;;;;5149345;27;20002;-71
2021/06/16 07:42:29;;;;;;;;;;;25.50;61.00;;;;;;5148263;27;19919;-70
2021/06/16 07:44:56;;;;;;;;;;;25.20;61.90;;;;;;5150528;27;19973;-71
2021/06/16 07:47:23;;;;;;;;;;;25.20;62.70;;;;;;5147525;27;19998;-68
2021/06/16 07:49:50;;;;;;;;;;;25.20;60.70;;;;;;5146624;27;19981;-68
2021/06/16 07:52:16;;;;;;;;;;;25.20;59.60;;;;;;5141614;27;19998;-67
2021/06/16 07:54:43;;;;;;;;;;;25.20;59.60;;;;;;5146405;27;19919;-67
2021/06/16 07:57:10;;;;;;;;;;;25.30;59.90;;;;;;5128527;27;19919;-68
2021/06/16 07:59:36;;;;;;;;;;;25.40;59.90;;;;;;5151026;27;19996;-68
2021/06/16 08:02:04;;;;;;;;;;;25.30;60.00;;;;;;5146857;27;19922;-68
2021/06/16 08:04:32;;;;;;;;;;;25.30;59.70;;;;;;5145452;27;19919;-68
2021/06/16 08:06:59;;;;;;;;;;;25.20;59.30;;;;;;5136817;27;20362;-68
2021/06/16 08:09:25;;;;;;;;;;;25.20;59.90;;;;;;5148082;27;19997;-69
2021/06/16 08:11:52;;;;;;;;;;;25.40;58.50;;;;;;5147687;27;19927;-68
2021/06/16 08:14:19;;;;;;;;;;;25.50;58.80;;;;;;5149974;27;19962;-68
2021/06/16 08:16:45;;;;;;;;;;;25.50;59.90;;;;;;5146623;27;20014;-67
2021/06/16 08:19:12;;;;;;;;;;;25.50;59.60;;;;;;5129301;27;19919;-68
2021/06/16 08:21:39;;;;;;;;;;;25.50;57.70;;;;;;5150207;27;19990;-68
2021/06/16 08:24:06;;;;;;;;;;;25.60;57.80;;;;;;5148123;27;20306;-68
2021/06/16 08:26:32;;;;;;;;;;;25.60;58.50;;;;;;5147305;27;20022;-68
2021/06/16 08:28:59;;;;;;;;;;;25.50;57.70;;;;;;5150849;27;19919;-67
2021/06/16 08:31:26;;;;;;;;;;;25.50;57.40;;;;;;5146187;27;19934;-68
2021/06/16 08:33:53;;;;;;;;;;;25.50;57.50;;;;;;5148880;27;19963;-68
2021/06/16 08:36:20;;;;;;;;;;;25.60;56.40;;;;;;5149395;27;19969;-70
2021/06/16 08:38:47;;;;;;;;;;;25.80;55.30;;;;;;5142109;27;19962;-68
2021/06/16 08:41:14;;;;;;;;;;;25.80;55.50;;;;;;5147357;27;20022;-68
2021/06/16 08:43:42;;;;;;;;;;;25.90;56.10;;;;;;5147474;27;19942;-69
2021/06/16 08:46:10;;;;;;;;;;;26.00;55.60;;;;;;5127232;27;19918;-68
2021/06/16 08:48:38;;;;;;;;;;;26.10;56.60;;;;;;5128907;27;19919;-67
2021/06/16 08:51:05;;;;;;;;;;;26.10;56.00;;;;;;5148215;27;20047;-68
2021/06/16 08:53:32;;;;;;;;;;;26.20;54.20;;;;;;5146854;27;20030;-68
2021/06/16 08:55:59;;;;;;;;;;;26.20;54.20;;;;;;5131103;27;20351;-68
2021/06/16 08:58:26;;;;;;;;;;;26.30;53.90;;;;;;5147720;27;19919;-69
2021/06/16 09:00:53;;;;;;;;;;;26.40;52.60;;;;;;5127685;27;19964;-68
2021/06/16 09:03:20;;;;;;;;;;;26.50;53.50;;;;;;5149627;27;19984;-68
2021/06/16 09:05:48;;;;;;;;;;;26.50;53.50;;;;;;5143890;27;19988;-68
2021/06/16 09:08:16;;;;;;;;;;;26.60;53.10;;;;;;5137831;27;19962;-68
2021/06/16 09:10:44;;;;;;;;;;;26.70;52.40;;;;;;5150639;27;19926;-68
2021/06/16 09:13:11;;;;;;;;;;;26.70;52.90;;;;;;5146778;27;20022;-68
2021/06/16 09:15:38;;;;;;;;;;;26.60;52.80;;;;;;5144798;27;19958;-68
2021/06/16 09:18:06;;;;;;;;;;;26.70;52.60;;;;;;5150657;27;19962;-68
2021/06/16 09:20:39;;;;;;;;;;;26.90;51.50;;;;;;5148216;27;19969;-68
2021/06/16 09:23:11;;;;;;;;;;;26.80;52.70;;;;;;5141949;27;19983;-68
2021/06/16 09:25:38;;;;;;;;;;;26.80;52.30;;;;;;5142406;27;20247;-68
2021/06/16 09:28:05;;;;;;;;;;;26.80;51.90;;;;;;5142601;27;19958;-68
2021/06/16 09:30:35;;;;;;;;;;;27.00;52.80;;;;;;5150377;27;19969;-68
2021/06/16 09:33:10;;;;;;;;;;;27.20;51.00;;;;;;5151798;27;20025;-68
2021/06/16 09:35:41;;;;;;;;;;;27.10;52.00;;;;;;5149317;27;19982;-68
2021/06/16 09:38:13;;;;;;;;;;;27.00;51.60;;;;;;5151557;27;19972;-69
2021/06/16 09:40:42;;;;;;;;;;;27.00;52.70;;;;;;5154006;27;20591;-71
2021/06/16 09:43:10;;;;;;;;;;;27.00;51.70;;;;;;5132607;27;19958;-72
2021/06/16 09:45:38;;;;;;;;;;;27.20;50.90;;;;;;5151312;27;19919;-71
2021/06/16 09:48:23;;;;;;;;;;;27.30;50.50;;;;;;5153531;27;19958;-71
2021/06/16 09:50:52;;;;;;;;;;;27.40;50.50;;;;;;5148978;27;19923;-70
2021/06/16 09:53:19;;;;;;;;;;;27.40;49.60;;;;;;5149957;27;19926;-70
2021/06/16 09:55:45;;;;;;;;;;;27.50;49.40;;;;;;5154178;27;19919;-70
2021/06/16 09:58:17;;;;;;;;;;;27.50;50.30;;;;;;5130444;27;20330;-71
2021/06/16 10:00:48;;;;;;;;;;;27.50;50.10;;;;;;5149720;27;19968;-70
2021/06/16 10:03:18;;;;;;;;;;;27.70;48.80;;;;;;5153378;27;20025;-71
2021/06/16 10:06:03;;;;;;;;;;;27.70;48.80;;;;;;5149020;27;19919;-70
2021/06/16 10:08:31;;;;;;;;;;;27.80;48.30;;;;;;5148991;27;19966;-72
2021/06/16 10:11:01;;;;;;;;;;;28.00;48.40;;;;;;5134654;27;19919;-72
2021/06/16 10:13:28;;;;;;;;;;;27.90;49.80;;;;;;5151471;27;19973;-71
2021/06/16 10:15:56;;;;;;;;;;;27.90;49.20;;;;;;5149898;27;19933;-72
2021/06/16 10:18:24;;;;;;;;;;;27.90;48.50;;;;;;5133062;27;19919;-71
2021/06/16 10:20:52;;;;;;;;;;;28.00;48.20;;;;;;5148479;27;20002;-70
2021/06/16 10:23:18;;;;;;;;;;;27.90;48.50;;;;;;5144217;27;19976;-71
2021/06/16 10:25:45;;;;;;;;;;;28.10;48.10;;;;;;5140455;27;20255;-71
2021/06/16 10:28:15;;;;;;;;;;;28.30;46.50;;;;;;5151571;27;20420;-70
2021/06/16 10:30:43;;;;;;;;;;;28.30;45.30;;;;;;5129633;27;20317;-70
2021/06/16 10:33:29;;;;;;;;;;;28.70;43.60;;;;;;5151873;27;20254;-71
2021/06/16 10:36:05;;;;;;;;;;;28.50;44.20;;;;;;5146991;27;20018;-71
2021/06/16 10:38:32;;;;;;;;;;;28.60;45.00;;;;;;5148325;27;19964;-71
2021/06/16 10:40:59;;;;;;;;;;;28.70;42.80;;;;;;5131532;27;19962;-71
2021/06/16 10:43:39;;;;;;;;;;;28.80;42.60;;;;;;5150562;27;19923;-71
2021/06/16 10:46:06;;;;;;;;;;;28.90;41.70;;;;;;5147592;27;19976;-70
2021/06/16 10:48:46;;;;;;;;;;;29.00;41.80;;;;;;5150553;27;19957;-69
2021/06/16 10:51:33;;;;;;;;;;;28.90;43.10;;;;;;5151717;27;19954;-71
2021/06/16 10:54:12;;;;;;;;;;;28.90;43.90;;;;;;5149001;27;20311;-71
2021/06/16 10:56:40;;;;;;;;;;;28.70;43.00;;;;;;5146979;27;19927;-71
2021/06/16 10:59:07;;;;;;;;;;;28.80;41.50;;;;;;5152482;27;19926;-72
2021/06/16 11:02:03;;;;;;;;;;;29.00;40.40;;;;;;5148063;27;19926;-72
2021/06/16 11:04:30;;;;;;;;;;;29.00;40.60;;;;;;5133260;27;19923;-71
2021/06/16 11:06:57;;;;;;;;;;;29.10;40.70;;;;;;5151706;27;19919;-71
2021/06/16 11:09:43;;;;;;;;;;;29.30;39.80;;;;;;5129935;27;20362;-72
2021/06/16 11:12:10;;;;;;;;;;;29.60;39.40;;;;;;5147915;27;19987;-71
2021/06/16 11:14:37;;;;;;;;;;;29.80;39.60;;;;;;5149979;27;19962;-71
2021/06/16 11:17:05;;;;;;;;;;;29.70;40.80;;;;;;5150148;27;19927;-71
2021/06/16 11:19:35;;;;;;;;;;;29.60;40.30;;;;;;5145966;27;19958;-71
2021/06/16 11:22:06;;;;;;;;;;;29.60;37.70;;;;;;5152196;27;19958;-71
2021/06/16 11:24:51;;;;;;;;;;;29.50;37.60;;;;;;5130526;27;20013;-71
2021/06/16 11:27:36;;;;;;;;;;;29.80;37.80;;;;;;5147670;27;20233;-71
2021/06/16 11:30:04;;;;;;;;;;;29.90;38.50;;;;;;5148988;27;19927;-71
2021/06/16 11:32:31;;;;;;;;;;;30.10;37.10;;;;;;5152005;27;19960;-71
2021/06/16 11:34:57;;;;;;;;;;;30.10;37.10;;;;;;5148105;27;19919;-71
2021/06/16 11:37:43;;;;;;;;;;;30.10;37.60;;;;;;5146949;27;19923;-71
2021/06/16 11:40:10;;;;;;;;;;;30.20;37.60;;;;;;5151104;27;20026;-71
2021/06/16 11:42:39;;;;;;;;;;;30.30;37.60;;;;;;5147422;27;19923;-71
2021/06/16 11:45:06;;;;;;;;;;;30.20;38.40;;;;;;5148304;27;20025;-71
2021/06/16 11:47:33;;;;;;;;;;;30.30;38.40;;;;;;5120516;27;19929;-70
2021/06/16 11:50:01;;;;;;;;;;;30.30;39.70;;;;;;5124399;27;20021;-70
2021/06/16 11:52:28;;;;;;;;;;;30.20;40.20;;;;;;5140681;27;19923;-71
2021/06/16 11:54:57;;;;;;;;;;;30.20;38.80;;;;;;5150242;27;19950;-71
2021/06/16 11:57:28;;;;;;;;;;;30.20;38.70;;;;;;5146593;27;19922;-70
2021/06/16 11:59:55;;;;;;;;;;;30.30;38.40;;;;;;5149266;27;19928;-72
2021/06/16 12:02:23;;;;;;;;;;;30.10;41.10;;;;;;5150103;27;19919;-71
2021/06/16 12:04:59;;;;;;;;;;;30.20;40.70;;;;;;5144754;27;19919;-71
2021/06/16 12:07:32;;;;;;;;;;;30.20;39.30;;;;;;5150674;27;20378;-71
2021/06/16 12:09:59;;;;;;;;;;;30.30;39.40;;;;;;5148564;27;20032;-71
2021/06/16 12:12:26;;;;;;;;;;;30.50;38.60;;;;;;5146300;27;20278;-70
2021/06/16 12:15:06;;;;;;;;;;;30.40;39.00;;;;;;5150135;27;20001;-71
2021/06/16 12:17:34;;;;;;;;;;;30.40;40.00;;;;;;5150982;27;19923;-71
2021/06/16 12:20:05;;;;;;;;;;;31.50;37.50;;;;;;5128345;27;19988;-71
2021/06/16 12:22:32;;;;;;;;;;;33.00;36.50;;;;;;5150047;27;19919;-71
2021/06/16 12:24:59;;;;;;;;;;;35.20;34.50;;;;;;5149850;27;19960;-71
2021/06/16 12:27:31;;;;;;;;;;;38.10;30.00;;;;;;5147690;27;20006;-72
2021/06/16 12:29:57;;;;;;;;;;;39.60;28.40;;;;;;5149617;27;20011;-71
2021/06/16 12:32:32;;;;;;;;;;;40.70;27.80;;;;;;5148540;27;20334;-71
2021/06/16 12:35:26;;;;;;;;;;;40.00;27.40;;;;;;5145972;27;19918;-72
2021/06/16 12:37:54;;;;;;;;;;;40.10;27.20;;;;;;5147520;27;19976;-71
2021/06/16 12:40:34;;;;;;;;;;;39.50;27.60;;;;;;5151438;27;20439;-71
2021/06/16 12:43:01;;;;;;;;;;;41.00;27.50;;;;;;5127916;27;19981;-71
2021/06/16 12:45:38;;;;;;;;;;;41.60;26.20;;;;;;5148995;27;19919;-71
2021/06/16 12:48:11;;;;;;;;;;;40.60;26.60;;;;;;5150014;27;20255;-71
2021/06/16 12:50:38;;;;;;;;;;;39.70;27.50;;;;;;5147815;27;19919;-71
2021/06/16 12:53:12;;;;;;;;;;;38.60;28.10;;;;;;5134593;27;20328;-71
2021/06/16 12:55:59;;;;;;;;;;;38.40;28.80;;;;;;5150959;27;19966;-71
2021/06/16 12:58:25;;;;;;;;;;;38.30;28.80;;;;;;5145887;27;19961;-71
2021/06/16 13:00:53;;;;;;;;;;;38.00;29.10;;;;;;5145147;27;20315;-71
2021/06/16 13:03:22;;;;;;;;;;;37.30;30.00;;;;;;5131234;27;20460;-72
2021/06/16 13:05:52;;;;;;;;;;;37.00;29.90;;;;;;5149330;27;20354;-71
2021/06/16 13:08:38;;;;;;;;;;;36.30;29.90;;;;;;5141455;27;20505;-72
2021/06/16 13:11:18;;;;;;;;;;;36.10;31.00;;;;;;5154335;27;19957;-71
2021/06/16 13:13:45;;;;;;;;;;;35.80;30.20;;;;;;5151690;27;19923;-71
2021/06/16 13:16:22;;;;;;;;;;;35.80;30.00;;;;;;5150680;27;19978;-71
2021/06/16 13:18:49;;;;;;;;;;;35.30;30.30;;;;;;5149495;27;20357;-71
2021/06/16 13:21:16;;;;;;;;;;;35.00;31.30;;;;;;5146395;27;20424;-71
2021/06/16 13:23:50;;;;;;;;;;;35.10;30.40;;;;;;5143391;27;20437;-70
2021/06/16 13:26:17;;;;;;;;;;;34.70;31.10;;;;;;5154218;27;19919;-71
2021/06/16 13:28:44;;;;;;;;;;;35.20;31.20;;;;;;5151439;27;19926;-71
2021/06/16 13:31:21;;;;;;;;;;;35.20;31.90;;;;;;5151366;27;19975;-71
2021/06/16 13:33:49;;;;;;;;;;;35.30;31.30;;;;;;5153138;27;19919;-71
2021/06/16 13:36:19;;;;;;;;;;;35.20;31.60;;;;;;5141639;27;20067;-71
2021/06/16 13:38:50;;;;;;;;;;;35.00;31.30;;;;;;5150341;27;19977;-69
2021/06/16 13:41:17;;;;;;;;;;;35.00;32.20;;;;;;5143033;27;19919;-68
2021/06/16 13:43:44;;;;;;;;;;;34.90;32.90;;;;;;5153260;27;19926;-68
2021/06/16 13:46:12;;;;;;;;;;;34.80;32.40;;;;;;5149348;27;20002;-67
2021/06/16 13:48:39;;;;;;;;;;;34.50;32.90;;;;;;5151263;27;19927;-67
2021/06/16 13:51:07;;;;;;;;;;;34.40;32.10;;;;;;5154075;27;19919;-69
2021/06/16 13:53:33;;;;;;;;;;;34.20;32.10;;;;;;5145848;27;19923;-67
2021/06/16 13:56:00;;;;;;;;;;;33.70;32.10;;;;;;5149768;27;19934;-67
2021/06/16 13:58:27;;;;;;;;;;;33.40;34.20;;;;;;5151429;27;19919;-68
2021/06/16 14:00:54;;;;;;;;;;;33.20;33.50;;;;;;5147280;27;19954;-66
2021/06/16 14:03:21;;;;;;;;;;;32.90;34.70;;;;;;5152537;27;19954;-67
2021/06/16 14:05:48;;;;;;;;;;;32.70;35.20;;;;;;5149316;27;20309;-68
2021/06/16 14:08:15;;;;;;;;;;;32.40;36.10;;;;;;5148768;27;20101;-69
2021/06/16 14:10:42;;;;;;;;;;;32.20;34.80;;;;;;5152477;27;19959;-69
2021/06/16 14:13:08;;;;;;;;;;;32.30;34.70;;;;;;5150148;27;19977;-68
2021/06/16 14:15:36;;;;;;;;;;;32.20;34.80;;;;;;5146893;27;20412;-69
2021/06/16 14:18:03;;;;;;;;;;;32.20;35.20;;;;;;5152870;27;20215;-68
2021/06/16 14:20:30;;;;;;;;;;;32.10;36.30;;;;;;5148136;27;19971;-68
2021/06/16 14:23:00;;;;;;;;;;;32.10;37.00;;;;;;5133799;27;19931;-68
2021/06/16 14:25:27;;;;;;;;;;;32.10;35.50;;;;;;5151949;27;19919;-68